createdAt,value
2022-11-04T09:22:28.230Z,15.30000019
2022-11-04T09:22:54.156Z,15.28999996
2022-11-04T09:23:50.748Z,15.21000004
2022-11-04T09:24:49.395Z,15.01000023
2022-11-04T09:25:44.000Z,14.72000027
2022-11-04T09:26:57.465Z,14.43999958
2022-11-04T09:41:42.909Z,14.18999958
2022-11-04T10:22:38.876Z,15.21000004
2022-11-04T10:23:17.761Z,15.10000038
2022-11-04T10:24:15.081Z,14.94999981
2022-11-04T10:25:13.798Z,14.78999996
2022-11-04T10:26:09.050Z,14.64000034
2022-11-04T10:27:06.780Z,14.5
2022-11-04T10:28:01.947Z,14.39000034
2022-11-04T10:28:58.472Z,14.32999992
2022-11-04T10:30:00.376Z,14.31999969
2022-11-04T10:30:53.600Z,14.27999973
2022-11-04T10:31:51.978Z,14.22000027
2022-11-04T10:32:48.826Z,14.21000004
2022-11-04T10:33:43.086Z,14.17000008
2022-11-04T10:34:42.354Z,14.14000034
2022-11-04T10:35:36.483Z,14.07999992
2022-11-04T10:36:35.031Z,14.02000046
2022-11-04T10:38:29.035Z,13.93999958
2022-11-04T10:39:24.169Z,13.98999977
2022-11-04T10:40:21.601Z,13.98999977
2022-11-04T10:41:15.616Z,13.93000031
2022-11-04T10:43:12.730Z,13.75
2022-11-04T10:44:04.616Z,13.69999981
2022-11-04T10:45:05.474Z,13.65999985
2022-11-04T10:45:57.823Z,13.63000011
2022-11-04T10:46:54.941Z,13.59000015
2022-11-04T10:47:48.360Z,13.56999969
2022-11-04T10:48:49.231Z,13.52999973
2022-11-04T10:49:44.079Z,13.51000023
2022-11-04T10:50:00.466Z,13.51000023
2022-11-04T10:50:21.774Z,13.51000023
2022-11-04T10:50:39.635Z,13.51000023
2022-11-04T10:51:33.623Z,13.56000042
2022-11-04T10:53:26.596Z,13.53999996
2022-11-04T10:54:23.564Z,13.52000046
2022-11-04T10:55:23.149Z,13.51000023
2022-11-04T10:56:13.441Z,13.51000023
2022-11-04T10:57:11.934Z,13.48999977
2022-11-04T10:58:50.398Z,13.47999954
2022-11-04T10:59:32.418Z,13.5
2022-11-04T11:00:31.859Z,13.48999977
2022-11-04T11:01:38.986Z,13.47000027
2022-11-04T11:02:32.994Z,13.46000004
2022-11-04T11:03:29.599Z,13.42000008
2022-11-04T11:04:29.255Z,13.40999985
2022-11-04T11:05:30.619Z,13.39999962
2022-11-04T11:06:27.761Z,13.40999985
2022-11-04T11:08:33.155Z,13.43999958
2022-11-04T11:09:32.635Z,13.43999958
2022-11-04T11:10:27.884Z,13.46000004
2022-11-04T11:11:27.895Z,13.47999954
2022-11-04T11:13:27.708Z,13.5
2022-11-04T11:14:29.684Z,13.55000019
2022-11-04T11:15:26.963Z,13.57999992
2022-11-04T11:16:28.494Z,13.56999969
2022-11-04T11:18:27.809Z,13.52000046
2022-11-04T11:19:27.574Z,13.51000023
2022-11-04T11:20:24.075Z,13.5
2022-11-04T11:21:25.660Z,13.47000027
2022-11-04T11:23:25.912Z,13.43000031
2022-11-04T11:24:21.291Z,13.42000008
2022-11-04T11:25:20.055Z,13.40999985
2022-11-04T11:26:21.935Z,13.38000011
2022-11-04T11:28:22.823Z,13.35000038
2022-11-04T11:29:18.119Z,13.34000015
2022-11-04T11:30:41.711Z,13.35999966
2022-11-04T11:31:22.086Z,13.39999962
2022-11-04T11:33:25.433Z,13.43000031
2022-11-04T11:34:21.407Z,13.40999985
2022-11-04T11:35:21.565Z,13.39999962
2022-11-04T11:36:17.023Z,13.38000011
2022-11-04T11:38:15.092Z,13.36999989
2022-11-04T11:39:14.221Z,13.35999966
2022-11-04T11:40:09.795Z,13.36999989
2022-11-04T11:41:24.808Z,13.35999966
2022-11-04T11:41:25.934Z,13.35999966
2022-11-04T11:41:29.474Z,13.35999966
2022-11-04T11:43:04.702Z,13.44999981
2022-11-04T11:44:05.983Z,13.47000027
2022-11-04T11:45:01.464Z,13.47999954
2022-11-04T11:46:02.172Z,13.46000004
2022-11-04T11:46:59.290Z,13.43999958
2022-11-04T11:48:54.070Z,13.47000027
2022-11-04T11:49:54.320Z,13.46000004
2022-11-04T11:50:49.894Z,13.47000027
2022-11-04T11:51:51.134Z,13.44999981
2022-11-04T11:52:46.354Z,13.44999981
2022-11-04T11:53:49.608Z,13.42000008
2022-11-04T11:54:42.524Z,13.43000031
2022-11-04T11:55:43.438Z,13.44999981
2022-11-04T11:57:06.861Z,13.43999958
2022-11-04T11:57:12.127Z,13.43999958
2022-11-04T11:57:12.711Z,13.43999958
2022-11-04T12:00:39.491Z,13.61999989
2022-11-04T12:01:34.798Z,13.68000031
2022-11-04T12:06:28.780Z,13.77999973
2022-11-04T12:09:31.504Z,13.86999989
2022-11-04T12:09:34.562Z,13.86999989
2022-11-04T12:10:49.192Z,13.89000034
2022-11-04T12:10:49.688Z,13.89000034
2022-11-04T12:10:50.374Z,13.89000034
2022-11-04T12:11:28.115Z,13.92000008
2022-11-04T12:13:24.439Z,13.89999962
2022-11-04T12:13:28.786Z,13.89999962
2022-11-04T12:14:23.267Z,13.86999989
2022-11-04T12:15:21.432Z,13.85000038
2022-11-04T12:16:21.754Z,13.77999973
2022-11-04T12:17:18.058Z,13.73999977
2022-11-04T12:18:17.310Z,13.69999981
2022-11-04T12:19:16.201Z,13.68999958
2022-11-04T12:20:15.097Z,13.71000004
2022-11-04T12:21:13.543Z,13.69999981
2022-11-04T12:22:44.699Z,13.68999958
2022-11-04T12:23:24.334Z,13.68999958
2022-11-04T12:24:22.342Z,13.68999958
2022-11-04T12:25:20.677Z,13.64000034
2022-11-04T12:26:19.440Z,13.59000015
2022-11-04T12:27:16.675Z,13.56999969
2022-11-04T12:28:16.189Z,13.51000023
2022-11-04T12:29:13.696Z,13.48999977
2022-11-04T12:30:08.324Z,13.47000027
2022-11-04T12:31:08.138Z,13.44999981
2022-11-04T12:33:06.753Z,13.43999958
2022-11-04T12:34:02.910Z,13.42000008
2022-11-04T12:35:01.550Z,13.42000008
2022-11-04T12:35:57.592Z,13.42000008
2022-11-04T12:37:06.414Z,13.39999962
2022-11-04T12:37:59.054Z,13.40999985
2022-11-04T12:38:59.783Z,13.43000031
2022-11-04T12:39:54.971Z,13.44999981
2022-11-04T12:41:27.609Z,13.47000027
2022-11-04T12:41:34.308Z,13.47000027
2022-11-04T12:42:19.398Z,13.48999977
2022-11-04T12:43:50.632Z,13.64000034
2022-11-04T12:44:46.086Z,13.65999985
2022-11-04T12:45:48.245Z,13.65999985
2022-11-04T12:46:47.035Z,13.64000034
2022-11-04T12:47:41.523Z,13.65999985
2022-11-04T12:48:37.224Z,13.65999985
2022-11-04T12:49:36.600Z,13.61999989
2022-11-04T12:50:34.485Z,13.60999966
2022-11-04T12:51:29.754Z,13.60000038
2022-11-04T12:54:18.120Z,13.64000034
2022-11-04T12:55:01.693Z,13.67000008
2022-11-04T12:56:00.815Z,13.71000004
2022-11-04T12:57:02.520Z,13.67000008
2022-11-04T12:58:59.833Z,13.69999981
2022-11-04T13:00:09.862Z,13.69999981
2022-11-04T13:01:01.884Z,13.67000008
2022-11-04T13:01:58.568Z,13.68999958
2022-11-04T13:03:04.071Z,13.68000031
2022-11-04T13:03:58.882Z,13.64999962
2022-11-04T13:05:04.764Z,13.64999962
2022-11-04T13:05:59.054Z,13.60999966
2022-11-04T13:07:00.271Z,13.60000038
2022-11-04T13:07:57.346Z,13.59000015
2022-11-04T13:08:59.520Z,13.59000015
2022-11-04T13:09:55.938Z,13.60000038
2022-11-04T13:10:59.888Z,13.60000038
2022-11-04T13:11:54.334Z,13.57999992
2022-11-04T13:12:55.846Z,13.57999992
2022-11-04T13:13:55.135Z,13.56000042
2022-11-04T13:14:01.843Z,13.56000042
2022-11-04T13:14:55.266Z,13.57999992
2022-11-04T13:15:51.773Z,13.59000015
2022-11-04T13:16:53.184Z,13.56999969
2022-11-04T13:17:49.713Z,13.57999992
2022-11-04T13:18:56.853Z,13.55000019
2022-11-04T13:19:52.155Z,13.57999992
2022-11-04T13:20:51.881Z,13.56000042
2022-11-04T13:21:52.516Z,13.53999996
2022-11-04T13:23:53.335Z,13.52999973
2022-11-04T13:24:47.246Z,13.52999973
2022-11-04T13:25:51.021Z,13.53999996
2022-11-04T13:26:45.781Z,13.55000019
2022-11-04T13:27:46.286Z,13.56000042
2022-11-04T13:28:42.885Z,13.53999996
2022-11-04T13:29:44.220Z,13.52000046
2022-11-04T13:30:41.355Z,13.51000023
2022-11-04T13:31:41.579Z,13.5
2022-11-04T13:32:37.752Z,13.51000023
2022-11-04T13:33:39.123Z,13.48999977
2022-11-04T13:34:35.488Z,13.47999954
2022-11-04T13:35:39.713Z,13.47000027
2022-11-04T13:36:35.344Z,13.47999954
2022-11-04T13:36:46.122Z,13.47000027
2022-11-04T13:38:40.792Z,13.55000019
2022-11-04T13:39:40.993Z,13.56999969
2022-11-04T13:40:37.280Z,13.57999992
2022-11-04T13:41:41.554Z,13.56999969
2022-11-04T13:43:39.408Z,13.56999969
2022-11-04T13:44:33.815Z,13.57999992
2022-11-04T13:45:37.702Z,13.59000015
2022-11-04T13:48:21.984Z,13.57999992
2022-11-04T13:48:28.585Z,13.64999962
2022-11-04T13:49:29.867Z,13.71000004
2022-11-04T13:50:25.023Z,13.73999977
2022-11-04T13:51:24.991Z,13.72999954
2022-11-04T13:52:20.220Z,13.69999981
2022-11-04T13:53:26.140Z,13.67000008
2022-11-04T13:54:19.390Z,13.64000034
2022-11-04T13:55:19.465Z,13.64000034
2022-11-04T13:56:32.683Z,13.64000034
2022-11-04T13:56:32.830Z,13.64000034
2022-11-04T13:56:33.430Z,13.64000034
2022-11-04T13:57:16.965Z,13.64999962
2022-11-04T13:58:12.989Z,13.67000008
2022-11-04T13:59:11.961Z,13.65999985
2022-11-04T14:00:07.673Z,13.64999962
2022-11-04T14:01:07.684Z,13.61999989
2022-11-04T14:02:03.851Z,13.60000038
2022-11-04T14:03:03.190Z,13.59000015
2022-11-04T14:03:58.384Z,13.56000042
2022-11-04T14:04:57.806Z,13.53999996
2022-11-04T14:05:54.723Z,13.52999973
2022-11-04T14:06:54.473Z,13.5
2022-11-04T14:07:49.304Z,13.5
2022-11-04T14:08:52.648Z,13.47000027
2022-11-04T14:09:45.960Z,13.44999981
2022-11-04T14:10:47.150Z,13.44999981
2022-11-04T14:11:42.728Z,13.43999958
2022-11-04T14:13:41.469Z,13.42000008
2022-11-04T14:14:37.513Z,13.40999985
2022-11-04T14:15:37.495Z,13.42000008
2022-11-04T14:16:35.274Z,13.39999962
2022-11-04T14:18:33.405Z,13.38000011
2022-11-04T14:19:32.558Z,13.38000011
2022-11-04T14:20:27.349Z,13.35999966
2022-11-04T14:21:25.732Z,13.35999966
2022-11-04T14:23:12.702Z,13.43000031
2022-11-04T14:23:53.934Z,13.46000004
2022-11-04T14:24:53.322Z,13.47999954
2022-11-04T14:25:54.829Z,13.47999954
2022-11-04T14:26:52.096Z,13.46000004
2022-11-04T14:28:53.995Z,13.43000031
2022-11-04T14:29:55.117Z,13.40999985
2022-11-04T14:30:51.504Z,13.36999989
2022-11-04T14:31:56.615Z,13.36999989
2022-11-04T14:33:53.677Z,13.35000038
2022-11-04T14:34:50.154Z,13.34000015
2022-11-04T14:35:51.627Z,13.32999992
2022-11-04T14:36:55.091Z,13.31999969
2022-11-04T14:38:53.323Z,13.31999969
2022-11-04T14:39:49.544Z,13.32999992
2022-11-04T14:40:53.025Z,13.31000042
2022-11-04T14:41:49.686Z,13.31000042
2022-11-04T14:42:51.000Z,13.31000042
2022-11-04T14:43:47.920Z,13.28999996
2022-11-04T14:44:50.191Z,13.27999973
2022-11-04T14:45:45.966Z,13.27000046
2022-11-04T14:46:47.099Z,13.25
2022-11-04T14:47:43.457Z,13.27000046
2022-11-04T14:48:44.546Z,13.25
2022-11-04T14:49:40.697Z,13.22999954
2022-11-04T14:50:45.503Z,13.22000027
2022-11-04T14:51:40.683Z,13.22000027
2022-11-04T14:53:40.483Z,13.31999969
2022-11-04T14:54:43.023Z,13.31000042
2022-11-04T14:55:41.280Z,13.31999969
2022-11-04T14:56:41.328Z,13.30000019
2022-11-04T14:58:41.896Z,13.27999973
2022-11-04T14:59:43.123Z,13.27000046
2022-11-04T15:00:42.160Z,13.26000023
2022-11-04T15:01:39.976Z,13.25
2022-11-04T15:02:40.601Z,13.25
2022-11-04T15:04:10.600Z,13.22999954
2022-11-04T15:04:11.771Z,13.22999954
2022-11-04T15:04:43.864Z,13.25
2022-11-04T15:05:50.758Z,13.27999973
2022-11-04T15:06:54.997Z,13.31000042
2022-11-04T15:06:55.220Z,13.31000042
2022-11-04T15:08:43.471Z,13.36999989
2022-11-04T15:09:40.771Z,13.35999966
2022-11-04T15:10:44.234Z,13.32999992
2022-11-04T15:11:44.936Z,13.31999969
2022-11-04T15:13:48.775Z,13.31999969
2022-11-04T15:14:45.472Z,13.27999973
2022-11-04T15:15:53.308Z,13.26000023
2022-11-04T15:16:48.657Z,13.18999958
2022-11-04T15:20:54.156Z,13.85000038
2022-11-04T15:21:21.984Z,13.96000004
2022-11-04T15:23:15.363Z,13.93999958
2022-11-04T15:24:16.962Z,13.89999962
2022-11-04T15:25:10.772Z,13.82999992
2022-11-04T15:26:09.511Z,13.77000046
2022-11-04T15:27:09.355Z,13.68000031
2022-11-04T15:29:06.180Z,13.52999973
2022-11-04T15:30:03.190Z,13.47999954
2022-11-04T15:30:57.869Z,13.43000031
2022-11-04T15:31:55.349Z,13.39999962
2022-11-04T15:33:52.707Z,13.36999989
2022-11-04T15:34:55.774Z,13.42000008
2022-11-04T15:35:54.143Z,13.46000004
2022-11-04T15:36:58.665Z,13.43999958
2022-11-04T15:37:49.348Z,13.43000031
2022-11-04T15:38:47.420Z,13.39000034
2022-11-04T15:39:41.906Z,13.35000038
2022-11-04T15:40:40.102Z,13.31000042
2022-11-04T15:41:38.332Z,13.27999973
2022-11-04T15:43:30.103Z,13.26000023
2022-11-04T15:44:35.066Z,13.25
2022-11-04T15:45:28.867Z,13.21000004
2022-11-04T15:46:26.927Z,13.18999958
2022-11-04T15:48:19.628Z,13.15999985
2022-11-04T15:49:13.696Z,13.14000034
2022-11-04T15:50:12.306Z,13.11999989
2022-11-04T15:51:06.136Z,13.10999966
2022-11-04T15:52:10.056Z,13.07999992
2022-11-04T15:54:06.591Z,13.06000042
2022-11-04T15:55:07.750Z,13.05000019
2022-11-04T15:55:59.687Z,13.02999973
2022-11-04T15:57:03.290Z,13.02999973
2022-11-04T15:57:56.240Z,13.02000046
2022-11-04T15:59:00.407Z,13.01000023
2022-11-04T15:59:51.888Z,12.98999977
2022-11-04T16:00:49.514Z,12.98999977
2022-11-04T16:01:43.532Z,12.97999954
2022-11-04T16:05:41.177Z,13.65999985
2022-11-04T16:06:21.061Z,13.75
2022-11-04T16:08:22.792Z,13.64000034
2022-11-04T16:09:16.591Z,13.55000019
2022-11-04T16:10:15.624Z,13.46000004
2022-11-04T16:11:11.937Z,13.38000011
2022-11-04T16:12:10.562Z,13.32999992
2022-11-04T16:13:06.115Z,13.27999973
2022-11-04T16:14:08.776Z,13.21000004
2022-11-04T16:15:07.980Z,13.15999985
2022-11-04T16:16:03.880Z,13.14999962
2022-11-04T16:17:05.152Z,13.18000031
2022-11-04T16:18:07.033Z,13.17000008
2022-11-04T16:19:07.142Z,13.13000011
2022-11-04T16:20:02.540Z,13.10999966
2022-11-04T16:21:00.660Z,13.06999969
2022-11-04T16:21:55.044Z,13.03999996
2022-11-04T16:23:49.833Z,12.97999954
2022-11-04T16:24:46.948Z,12.96000004
2022-11-04T16:25:40.398Z,12.93000031
2022-11-04T16:26:38.459Z,12.92000008
2022-11-04T16:28:32.284Z,12.88000011
2022-11-04T16:29:34.661Z,12.86999989
2022-11-04T16:30:26.226Z,12.85000038
2022-11-04T16:31:34.329Z,12.84000015
2022-11-04T16:32:25.698Z,12.85999966
2022-11-04T16:33:21.242Z,12.86999989
2022-11-04T16:34:22.212Z,12.85999966
2022-11-04T16:35:13.565Z,12.85999966
2022-11-04T16:36:12.449Z,12.85999966
2022-11-04T16:38:27.551Z,13.03999996
2022-11-04T16:39:14.772Z,13.11999989
2022-11-04T16:40:14.515Z,13.11999989
2022-11-04T16:41:16.708Z,13.06999969
2022-11-04T16:43:13.825Z,13
2022-11-04T16:44:09.980Z,13
2022-11-04T16:45:10.434Z,12.96000004
2022-11-04T16:46:09.976Z,12.92000008
2022-11-04T16:47:11.280Z,12.88000011
2022-11-04T16:48:04.708Z,12.85000038
2022-11-04T16:49:02.964Z,12.81999969
2022-11-04T16:49:56.879Z,12.77999973
2022-11-04T16:50:58.807Z,12.75
2022-11-04T16:51:54.686Z,12.72999954
2022-11-04T16:53:52.818Z,12.69999981
2022-11-04T16:54:58.073Z,12.69999981
2022-11-04T16:55:50.634Z,12.68000031
2022-11-04T16:56:53.091Z,12.65999985
2022-11-04T16:58:50.916Z,12.63000011
2022-11-04T16:59:46.005Z,12.60000038
2022-11-04T17:00:42.900Z,12.57999992
2022-11-04T17:01:50.125Z,12.55000019
2022-11-04T17:03:37.171Z,12.56999969
2022-11-04T17:04:45.065Z,12.56000042
2022-11-04T17:05:38.262Z,12.52999973
2022-11-04T17:06:43.668Z,12.47999954
2022-11-04T17:08:39.038Z,12.51000023
2022-11-04T17:09:37.806Z,12.59000015
2022-11-04T17:10:32.032Z,12.61999989
2022-11-04T17:11:32.398Z,12.59000015
2022-11-04T17:13:25.291Z,12.53999996
2022-11-04T17:14:20.645Z,12.52000046
2022-11-04T17:15:19.317Z,12.47999954
2022-11-04T17:16:13.988Z,12.43999958
2022-11-04T17:18:00.808Z,12.48999977
2022-11-04T17:18:42.137Z,12.47999954
2022-11-04T17:19:44.038Z,12.47999954
2022-11-04T17:20:42.822Z,12.46000004
2022-11-04T17:21:44.100Z,12.42000008
2022-11-04T17:23:48.397Z,12.35000038
2022-11-04T17:24:44.774Z,12.32999992
2022-11-04T17:25:45.464Z,12.30000019
2022-11-04T17:26:44.525Z,12.27000046
2022-11-04T17:27:47.998Z,12.27000046
2022-11-04T17:28:48.582Z,12.22999954
2022-11-04T17:29:48.167Z,12.17000008
2022-11-04T17:30:51.879Z,12.15999985
2022-11-04T17:31:47.031Z,12.15999985
2022-11-04T17:33:52.409Z,12.15999985
2022-11-04T17:34:46.794Z,12.14000034
2022-11-04T17:35:51.379Z,12.14000034
2022-11-04T17:36:46.803Z,12.11999989
2022-11-04T17:38:45.630Z,12.18999958
2022-11-04T17:39:47.882Z,12.18999958
2022-11-04T17:40:48.316Z,12.15999985
2022-11-04T17:41:49.128Z,12.14000034
2022-11-04T17:42:51.696Z,12.15999985
2022-11-04T17:43:47.835Z,12.10999966
2022-11-04T17:44:53.127Z,12.09000015
2022-11-04T17:45:53.626Z,12.06999969
2022-11-04T17:46:49.649Z,12.06999969
2022-11-04T17:47:52.990Z,12.14000034
2022-11-04T17:48:52.204Z,12.26000023
2022-11-04T17:49:53.899Z,12.28999996
2022-11-04T17:50:54.154Z,12.31999969
2022-11-04T17:51:54.848Z,12.35999966
2022-11-04T17:53:09.211Z,12.35999966
2022-11-04T17:54:06.388Z,12.30000019
2022-11-04T17:55:16.351Z,12.30000019
2022-11-04T17:55:17.962Z,12.30000019
2022-11-04T17:56:09.746Z,12.31999969
2022-11-04T17:57:10.958Z,12.32999992
2022-11-04T17:59:14.322Z,12.27000046
2022-11-04T18:00:13.730Z,12.25
2022-11-04T18:01:49.793Z,12.27000046
2022-11-04T18:03:48.148Z,12.43999958
2022-11-04T18:04:34.372Z,12.44999981
2022-11-04T18:05:31.185Z,12.51000023
2022-11-04T18:06:29.065Z,12.56999969
2022-11-04T18:08:36.323Z,12.60999966
2022-11-04T18:09:35.855Z,12.63000011
2022-11-04T18:10:34.958Z,12.64000034
2022-11-04T18:11:37.295Z,12.60999966
2022-11-04T18:13:42.563Z,12.52000046
2022-11-04T18:14:44.240Z,12.47999954
2022-11-04T18:15:41.142Z,12.48999977
2022-11-04T18:16:46.096Z,12.46000004
2022-11-04T18:17:48.430Z,12.43000031
2022-11-04T18:18:48.267Z,12.38000011
2022-11-04T18:19:47.859Z,12.31999969
2022-11-04T18:20:53.764Z,12.27999973
2022-11-04T18:21:49.660Z,12.26000023
2022-11-04T18:23:52.194Z,12.18999958
2022-11-04T18:24:53.395Z,12.15999985
2022-11-04T18:25:58.162Z,12.13000011
2022-11-04T18:27:45.026Z,12.19999981
2022-11-04T18:28:24.992Z,12.25
2022-11-04T18:29:26.114Z,12.27999973
2022-11-04T18:30:24.288Z,12.26000023
2022-11-04T18:31:24.914Z,12.19999981
2022-11-04T18:33:25.579Z,12.15999985
2022-11-04T18:34:25.723Z,12.14000034
2022-11-04T18:35:21.116Z,12.10999966
2022-11-04T18:36:23.521Z,12.10000038
2022-11-04T18:37:17.645Z,12.10999966
2022-11-04T18:39:14.073Z,12.06999969
2022-11-04T18:40:14.208Z,12.05000019
2022-11-04T18:41:12.157Z,12.02999973
2022-11-04T18:42:17.264Z,12.07999992
2022-11-04T18:44:10.206Z,12.14999962
2022-11-04T18:45:05.627Z,12.14000034
2022-11-04T18:46:10.864Z,12.10999966
2022-11-04T18:47:14.769Z,12.10000038
2022-11-04T18:48:21.312Z,12.09000015
2022-11-04T18:49:18.669Z,12.03999996
2022-11-04T18:50:18.839Z,12.01000023
2022-11-04T18:51:13.138Z,11.98999977
2022-11-04T18:52:18.139Z,11.97999954
2022-11-04T18:53:12.616Z,12
2022-11-04T18:54:17.942Z,12.01000023
2022-11-04T18:55:23.983Z,12.05000019
2022-11-04T18:56:23.297Z,12.02999973
2022-11-04T18:57:21.483Z,12.02999973
2022-11-04T18:58:21.762Z,12.01000023
2022-11-04T18:59:16.473Z,11.94999981
2022-11-04T19:00:21.329Z,11.93000031
2022-11-04T19:01:15.878Z,11.90999985
2022-11-04T19:02:18.781Z,11.89999962
2022-11-04T19:03:12.661Z,11.88000011
2022-11-04T19:04:12.356Z,11.85000038
2022-11-04T19:05:10.135Z,11.82999992
2022-11-04T19:06:07.622Z,11.81000042
2022-11-04T19:07:08.987Z,11.80000019
2022-11-04T19:09:40.248Z,11.78999996
2022-11-04T19:10:07.515Z,11.77999973
2022-11-04T19:11:04.828Z,11.81000042
2022-11-04T19:11:59.575Z,11.82999992
2022-11-04T19:13:56.904Z,11.80000019
2022-11-04T19:15:26.357Z,11.80000019
2022-11-04T19:16:09.198Z,11.80000019
2022-11-04T19:17:11.280Z,11.82999992
2022-11-04T19:19:07.416Z,11.77999973
2022-11-04T19:20:12.099Z,11.76000023
2022-11-04T19:21:04.267Z,11.73999977
2022-11-04T19:22:04.878Z,11.73999977
2022-11-04T19:23:03.956Z,11.75
2022-11-04T19:24:03.790Z,11.73999977
2022-11-04T19:25:00.386Z,11.72000027
2022-11-04T19:26:02.862Z,11.69999981
2022-11-04T19:27:02.053Z,11.69999981
2022-11-04T19:29:00.546Z,11.71000004
2022-11-04T19:30:07.575Z,11.77999973
2022-11-04T19:31:02.468Z,11.81000042
2022-11-04T19:32:06.282Z,11.85000038
2022-11-04T19:33:03.330Z,11.89999962
2022-11-04T19:33:58.855Z,11.90999985
2022-11-04T19:35:02.451Z,11.88000011
2022-11-04T19:35:57.605Z,11.85000038
2022-11-04T19:36:58.320Z,11.82999992
2022-11-04T19:38:52.017Z,11.80000019
2022-11-04T19:39:54.733Z,11.78999996
2022-11-04T19:40:52.093Z,11.73999977
2022-11-04T19:41:55.567Z,11.72000027
2022-11-04T19:42:52.980Z,11.71000004
2022-11-04T19:43:54.063Z,11.68999958
2022-11-04T19:44:52.838Z,11.65999985
2022-11-04T19:45:59.976Z,11.64999962
2022-11-04T19:46:04.381Z,11.64999962
2022-11-04T19:47:04.035Z,11.65999985
2022-11-04T19:49:03.895Z,11.65999985
2022-11-04T19:50:01.088Z,11.64000034
2022-11-04T19:51:03.200Z,11.60999966
2022-11-04T19:52:02.427Z,11.60999966
2022-11-04T19:53:10.414Z,11.60000038
2022-11-04T19:53:54.870Z,11.57999992
2022-11-04T19:54:56.039Z,11.57999992
2022-11-04T19:55:48.529Z,11.56999969
2022-11-04T19:56:50.969Z,11.56999969
2022-11-04T19:57:47.027Z,11.59000015
2022-11-04T19:58:52.441Z,11.57999992
2022-11-04T19:59:46.725Z,11.57999992
2022-11-04T20:00:49.229Z,11.61999989
2022-11-04T20:01:41.827Z,11.63000011
2022-11-04T20:02:45.511Z,11.64999962
2022-11-04T20:03:44.701Z,11.64000034
2022-11-04T20:04:44.975Z,11.60999966
2022-11-04T20:06:24.984Z,11.75
2022-11-04T20:08:10.182Z,12.14000034
2022-11-04T20:08:50.792Z,12.18999958
2022-11-04T20:09:56.538Z,12.17000008
2022-11-04T20:10:59.807Z,12.11999989
2022-11-04T20:11:59.620Z,12.06999969
2022-11-04T20:13:55.392Z,12.06000042
2022-11-04T20:15:01.239Z,12.02999973
2022-11-04T20:15:57.629Z,11.97000027
2022-11-04T20:16:53.152Z,11.90999985
2022-11-04T20:18:49.087Z,11.80000019
2022-11-04T20:19:49.702Z,11.76000023
2022-11-04T20:20:46.163Z,11.72000027
2022-11-04T20:21:45.698Z,11.68000031
2022-11-04T20:23:43.482Z,11.64999962
2022-11-04T20:24:43.857Z,11.61999989
2022-11-04T20:25:44.042Z,11.59000015
2022-11-04T20:26:46.329Z,11.57999992
2022-11-04T20:28:40.450Z,11.60000038
2022-11-04T20:29:38.711Z,11.60999966
2022-11-04T20:30:38.577Z,11.60000038
2022-11-04T20:31:40.529Z,11.61999989
2022-11-04T20:32:35.493Z,11.68999958
2022-11-04T20:33:33.694Z,11.69999981
2022-11-04T20:34:33.118Z,11.69999981
2022-11-04T20:35:33.654Z,11.65999985
2022-11-04T20:36:29.990Z,11.64999962
2022-11-04T20:38:26.740Z,11.68000031
2022-11-04T20:39:26.528Z,11.67000008
2022-11-04T20:40:25.586Z,11.67000008
2022-11-04T20:41:21.839Z,11.69999981
2022-11-04T20:43:21.480Z,11.69999981
2022-11-04T20:44:25.131Z,11.67000008
2022-11-04T20:45:22.024Z,11.64000034
2022-11-04T20:46:21.771Z,11.60999966
2022-11-04T20:47:24.284Z,11.64999962
2022-11-04T20:49:23.095Z,11.68000031
2022-11-04T20:50:28.385Z,11.64999962
2022-11-04T20:51:31.327Z,11.61999989
2022-11-04T20:53:33.068Z,11.60999966
2022-11-04T20:54:35.513Z,11.59000015
2022-11-04T20:55:30.828Z,11.57999992
2022-11-04T20:56:34.528Z,11.55000019
2022-11-04T20:57:27.046Z,11.56999969
2022-11-04T21:00:07.067Z,11.69999981
2022-11-04T21:00:57.765Z,11.73999977
2022-11-04T21:01:52.450Z,11.77999973
2022-11-04T21:03:53.897Z,11.80000019
2022-11-04T21:04:50.166Z,11.82999992
2022-11-04T21:05:52.845Z,11.81000042
2022-11-04T21:06:52.374Z,11.82999992
2022-11-04T21:08:54.091Z,11.86999989
2022-11-04T21:09:51.822Z,11.82999992
2022-11-04T21:10:48.394Z,11.81999969
2022-11-04T21:11:52.964Z,11.80000019
2022-11-04T21:13:49.318Z,11.76000023
2022-11-04T21:14:50.922Z,11.75
2022-11-04T21:15:54.063Z,11.72000027
2022-11-04T21:16:47.904Z,11.71000004
2022-11-04T21:17:50.885Z,11.72999954
2022-11-04T21:18:47.450Z,11.71000004
2022-11-04T21:19:44.075Z,11.71000004
2022-11-04T21:20:48.426Z,11.68999958
2022-11-04T21:21:42.825Z,11.68000031
2022-11-04T21:22:44.775Z,11.68000031
2022-11-04T21:23:40.883Z,11.65999985
2022-11-04T21:24:45.081Z,11.60999966
2022-11-04T21:25:40.794Z,11.59000015
2022-11-04T21:26:43.986Z,11.57999992
2022-11-04T21:27:37.869Z,11.60999966
2022-11-04T21:28:41.827Z,11.60999966
2022-11-04T21:29:39.911Z,11.59000015
2022-11-04T21:30:38.955Z,11.60000038
2022-11-04T21:31:43.105Z,11.60999966
2022-11-04T21:32:41.536Z,11.63000011
2022-11-04T21:33:40.671Z,11.60999966
2022-11-04T21:34:37.085Z,11.60000038
2022-11-04T21:35:42.199Z,11.60000038
2022-11-04T21:36:41.467Z,11.60000038
2022-11-04T21:38:40.788Z,11.60999966
2022-11-04T21:40:32.658Z,11.68000031
2022-11-04T21:41:14.499Z,11.72000027
2022-11-04T21:42:13.816Z,11.76000023
2022-11-04T21:44:07.232Z,11.73999977
2022-11-04T21:45:06.630Z,11.72000027
2022-11-04T21:46:04.201Z,11.68999958
2022-11-04T21:47:04.192Z,11.68000031
2022-11-04T21:48:03.515Z,11.68999958
2022-11-04T21:48:59.724Z,11.65999985
2022-11-04T21:50:00.331Z,11.63000011
2022-11-04T21:50:55.642Z,11.61999989
2022-11-04T21:51:54.602Z,11.60999966
2022-11-04T21:52:49.798Z,11.63000011
2022-11-04T21:53:56.162Z,11.60999966
2022-11-04T21:54:51.583Z,11.60000038
2022-11-04T21:55:49.236Z,11.57999992
2022-11-04T21:56:49.776Z,11.57999992
2022-11-04T21:58:48.597Z,11.57999992
2022-11-04T21:59:41.049Z,11.57999992
2022-11-04T22:00:38.802Z,11.59000015
2022-11-04T22:01:37.047Z,11.56000042
2022-11-04T22:03:38.529Z,11.56000042
2022-11-04T22:04:32.721Z,11.55000019
2022-11-04T22:05:36.025Z,11.56999969
2022-11-04T22:06:34.042Z,11.56999969
2022-11-04T22:06:35.749Z,11.56999969
2022-11-04T22:07:29.406Z,11.59000015
2022-11-04T22:08:28.835Z,11.59000015
2022-11-04T22:09:37.032Z,11.59000015
2022-11-04T22:10:32.430Z,11.56000042
2022-11-04T22:11:35.671Z,11.52999973
2022-11-04T22:13:30.972Z,11.55000019
2022-11-04T22:14:28.254Z,11.55000019